首页
METAR-TAF:

METAR-TAF

机场 :

真纳国际机场

卡拉奇, 巴基斯坦

纬度: 24-54N, 经度: 067-08E, 海拔: 21米

当前天气观测

该预报发布于17分钟前的22:30 UTC
风速5节,风向南转西南
温度 31°C
湿度 75%
气压 1000 hPa
能見度: 5000
霾,

METAR: OPKC 222230Z 21005KT 5000 HZ NSC 31/26 Q1000 NOSIG

时间: 03:47 (22:47 UTC)

预报

该预报发布于5小时和47分钟前的17:00 UTC
预报有效从22日的 18点(UTC)到 23日的 24点(UTC)
风速10节,风向西
能見度: 5000
散云层高于2500英尺
短暂存在
从 23日的 00点(UTC)到 23日的 04点(UTC)
风速10节,风向西转西南
能見度: 4000
多云层高于2000英尺
短暂存在
从 23日的 12点(UTC)到 23日的 16点(UTC)
风速15节,风向北转东北,有时为27节阵风
能見度: 1000
少量云层高于2500英尺, 积雨云.
散云层高于2000英尺
多云层高于3000英尺
阴天层高于9000英尺
成为
从 23日的 16点(UTC)到 23日的 18点(UTC)
风速10节,风向西
能見度: 4000
散云层高于2000英尺
霾,

TAF: OPKC 221700Z 2218/2324 26010KT 5000 HZ SCT025 TEMPO 2300/2304 24010KT 4000 HZ BKN020 TEMPO 2312/2316 03015G27KT 1000 DS/TSRA FEW025CB SCT020 BKN030 OVC090 BECMG 2316/2318 27010KT 4000 HZ SCT020

超过4000个机场的气象观测和天气预报(METAR&TAF报告)。

可查询的气象台以黄色和红色小点在地图上表示。

将鼠标移到小点上方,可查看气象台名称。

然后点击查看天气观测和预报。

如需切换地图:点击带黑十字的绿色按钮放大地图;点击带横线的绿色按钮缩小地图;或者点击绿色箭头查看邻近地区的地图。


METAR-TAF: